Time;durP1;ratioP1;P1;durP2;ratioP2;P2;SDS_P1;SDS_P2;PMS_P1;PMS_P2;Temp;Humidity;BMP_temperature;BMP_pressure;BME280_temperature;BME280_humidity;BME280_pressure;Samples;Min_cycle;Max_cycle;Signal;HPM_P1;HPM_P2
2022/04/28 00:01:57;;;;;;;7.55;3.40;;;7.70;99.90;;;;;;5120773;27;20027;-70
2022/04/28 00:04:22;;;;;;;8.57;3.35;;;7.70;99.90;;;;;;5135207;27;20027;-70
2022/04/28 00:06:48;;;;;;;9.90;3.08;;;7.70;99.90;;;;;;5131597;27;20030;-71
2022/04/28 00:09:14;;;;;;;7.90;2.95;;;7.70;99.90;;;;;;5140706;27;20294;-70
2022/04/28 00:11:40;;;;;;;7.40;3.63;;;7.70;99.90;;;;;;5139721;27;20341;-72
2022/04/28 00:14:08;;;;;;;10.13;3.67;;;7.60;99.90;;;;;;5136355;27;20047;-73
2022/04/28 00:16:37;;;;;;;9.18;3.42;;;7.60;99.90;;;;;;5113726;28;20313;-73
2022/04/28 00:19:03;;;;;;;7.00;3.50;;;7.60;99.90;;;;;;5103179;28;20049;-72
2022/04/28 00:21:30;;;;;;;8.27;3.17;;;7.60;99.90;;;;;;5103766;28;20035;-72
2022/04/28 00:23:55;;;;;;;8.65;3.75;;;7.80;99.90;;;;;;5103354;28;20099;-72
2022/04/28 00:26:21;;;;;;;12.20;3.65;;;7.80;99.90;;;;;;5126996;28;20031;-73
2022/04/28 00:28:47;;;;;;;7.22;3.65;;;7.80;99.90;;;;;;5103697;28;20019;-71
2022/04/28 00:31:13;;;;;;;12.07;4.70;;;7.70;99.90;;;;;;5118391;28;20043;-72
2022/04/28 00:33:42;;;;;;;9.88;4.53;;;7.70;99.90;;;;;;5126561;27;20309;-71
2022/04/28 00:36:08;;;;;;;9.35;4.07;;;7.70;99.90;;;;;;5137871;27;20044;-71
2022/04/28 00:38:34;;;;;;;9.77;4.38;;;7.70;99.90;;;;;;5105029;28;20145;-71
2022/04/28 00:41:00;;;;;;;8.32;3.85;;;7.70;99.90;;;;;;5111575;28;20023;-70
2022/04/28 00:43:29;;;;;;;7.18;4.00;;;7.70;99.90;;;;;;5112337;28;20034;-71
2022/04/28 00:45:55;;;;;;;8.43;3.83;;;7.70;99.90;;;;;;5119966;28;20043;-70
2022/04/28 00:51:07;;;;;;;9.05;3.95;;;7.70;99.90;;;;;;5118714;28;20129;-71
2022/04/28 00:53:39;;;;;;;8.88;4.47;;;7.70;99.90;;;;;;5119215;28;20376;-72
2022/04/28 00:56:05;;;;;;;8.48;4.15;;;7.70;99.90;;;;;;5107108;28;20039;-72
2022/04/28 00:58:31;;;;;;;8.98;3.85;;;7.70;99.90;;;;;;5105166;28;20219;-71
2022/04/28 01:00:59;;;;;;;8.35;3.80;;;7.70;99.90;;;;;;5102387;28;20077;-71
2022/04/28 01:03:30;;;;;;;8.82;4.20;;;7.60;99.90;;;;;;5130727;28;20027;-73
2022/04/28 01:05:56;;;;;;;7.85;3.65;;;7.70;99.90;;;;;;5115056;28;20067;-72
2022/04/28 01:08:22;;;;;;;9.57;3.50;;;7.70;99.90;;;;;;5114858;28;20027;-70
2022/04/28 01:10:47;;;;;;;6.60;3.58;;;7.70;99.90;;;;;;5117914;28;20338;-70
2022/04/28 01:13:13;;;;;;;10.00;3.50;;;7.70;99.90;;;;;;5118275;28;20043;-71
2022/04/28 01:15:47;;;;;;;6.90;3.65;;;7.60;99.90;;;;;;5096592;28;20321;-70
2022/04/28 01:18:13;;;;;;;6.60;3.45;;;7.60;99.90;;;;;;5120183;27;20827;-71
2022/04/28 01:20:40;;;;;;;7.45;3.97;;;7.60;99.90;;;;;;5125102;27;20020;-72
2022/04/28 01:23:07;;;;;;;8.70;4.13;;;7.60;99.90;;;;;;5121116;27;20070;-70
2022/04/28 01:25:33;;;;;;;7.95;3.78;;;7.70;99.90;;;;;;5122307;27;20215;-72
2022/04/28 01:28:13;;;;;;;9.38;4.20;;;7.80;99.90;;;;;;5124904;27;20041;-71
2022/04/28 01:30:41;;;;;;;7.10;3.08;;;7.70;99.90;;;;;;5110321;27;20035;-72
2022/04/28 01:33:07;;;;;;;10.90;3.65;;;7.70;99.90;;;;;;5109351;27;20059;-71
2022/04/28 01:35:33;;;;;;;6.85;3.80;;;8.20;99.90;;;;;;5107051;27;20024;-71
2022/04/28 01:37:58;;;;;;;5.50;3.47;;;7.70;99.90;;;;;;5106066;27;20038;-70
2022/04/28 01:40:24;;;;;;;5.97;4.13;;;7.70;99.90;;;;;;5111543;27;20030;-71
2022/04/28 01:42:52;;;;;;;7.07;3.55;;;7.70;99.90;;;;;;5126314;27;20105;-71
2022/04/28 01:45:18;;;;;;;10.18;4.07;;;7.70;99.90;;;;;;5104892;27;20059;-71
2022/04/28 01:47:43;;;;;;;7.10;3.88;;;7.70;99.90;;;;;;5109995;27;20034;-70
2022/04/28 01:50:11;;;;;;;7.53;3.88;;;7.70;99.90;;;;;;5130288;27;20140;-71
2022/04/28 01:55:22;;;;;;;6.88;3.45;;;7.60;99.90;;;;;;5133951;27;20068;-72
2022/04/28 01:57:48;;;;;;;7.55;3.55;;;7.70;99.90;;;;;;5104936;27;20065;-72
2022/04/28 02:00:15;;;;;;;8.30;4.07;;;7.70;99.90;;;;;;5106810;28;20035;-71
2022/04/28 02:02:41;;;;;;;12.55;4.60;;;7.60;99.90;;;;;;5123935;27;20028;-72
2022/04/28 02:05:08;;;;;;;9.10;4.38;;;7.70;99.90;;;;;;5122438;27;20291;-71
2022/04/28 02:07:34;;;;;;;8.98;4.20;;;7.70;99.90;;;;;;5134612;27;20055;-72
2022/04/28 02:10:01;;;;;;;5.78;3.70;;;7.70;99.90;;;;;;5126320;27;20031;-69
2022/04/28 02:12:27;;;;;;;8.25;4.00;;;7.70;99.90;;;;;;5136676;27;20409;-70
2022/04/28 02:14:54;;;;;;;6.28;3.78;;;7.70;99.90;;;;;;5127858;27;20047;-71
2022/04/28 02:17:25;;;;;;;7.97;4.15;;;7.70;99.90;;;;;;5143362;27;20034;-72
2022/04/28 02:19:51;;;;;;;11.02;4.70;;;7.70;99.90;;;;;;5125982;27;20035;-73
2022/04/28 02:22:18;;;;;;;6.00;4.50;;;7.80;99.90;;;;;;5117478;27;20053;-69
2022/04/28 02:24:44;;;;;;;9.07;4.10;;;7.70;99.90;;;;;;5120291;27;20031;-70
2022/04/28 02:27:10;;;;;;;7.30;3.80;;;7.70;99.90;;;;;;5109647;27;20035;-70
2022/04/28 02:29:36;;;;;;;8.95;4.13;;;7.80;99.90;;;;;;5128081;27;20431;-71
2022/04/28 02:32:02;;;;;;;6.20;3.90;;;7.80;99.90;;;;;;5115551;27;20223;-70
2022/04/28 02:34:27;;;;;;;9.65;3.90;;;7.70;99.90;;;;;;5110583;27;20398;-71
2022/04/28 02:36:53;;;;;;;11.93;3.72;;;7.70;99.90;;;;;;5154188;27;20030;-70
2022/04/28 02:39:19;;;;;;;12.65;4.40;;;7.70;99.90;;;;;;5137814;27;20063;-71
2022/04/28 02:41:46;;;;;;;7.60;3.60;;;7.70;99.90;;;;;;5111762;27;20046;-70
2022/04/28 02:44:12;;;;;;;10.30;4.47;;;7.70;99.90;;;;;;5108115;27;20046;-71
2022/04/28 02:46:51;;;;;;;9.30;4.20;;;7.70;99.90;;;;;;5106850;27;20039;-71
2022/04/28 02:49:17;;;;;;;8.57;3.90;;;7.70;99.90;;;;;;5124304;27;20237;-72
2022/04/28 02:51:43;;;;;;;8.43;4.18;;;7.70;99.90;;;;;;5110772;27;20026;-71
2022/04/28 02:54:10;;;;;;;10.20;3.67;;;7.80;99.90;;;;;;5130918;27;20034;-70
2022/04/28 02:56:36;;;;;;;7.95;3.80;;;7.80;99.90;;;;;;5120387;27;20031;-72
2022/04/28 02:59:05;;;;;;;5.55;3.45;;;7.80;99.90;;;;;;5124065;27;20031;-70
2022/04/28 03:01:30;;;;;;;8.32;3.70;;;7.80;99.90;;;;;;5116621;27;20102;-71
2022/04/28 03:03:56;;;;;;;9.57;3.80;;;7.90;99.90;;;;;;5110492;27;20023;-71
2022/04/28 03:11:54;;;;;;;9.40;3.28;;;7.80;99.90;;;;;;5141183;27;20104;-71
2022/04/28 03:14:20;;;;;;;9.38;4.25;;;7.80;99.90;;;;;;5111415;27;20039;-71
2022/04/28 03:16:46;;;;;;;6.65;3.35;;;7.80;99.90;;;;;;5112356;27;20031;-72
2022/04/28 03:19:11;;;;;;;6.60;3.83;;;7.90;99.90;;;;;;5113486;27;20026;-72
2022/04/28 03:21:37;;;;;;;8.45;3.70;;;7.80;99.90;;;;;;5108662;27;20027;-72
2022/04/28 03:24:03;;;;;;;8.80;3.75;;;7.80;99.90;;;;;;5129654;27;20372;-72
2022/04/28 03:26:29;;;;;;;6.13;3.10;;;7.80;99.90;;;;;;5118268;27;20202;-71
2022/04/28 03:28:56;;;;;;;9.57;3.80;;;7.80;99.90;;;;;;5115669;27;20043;-70
2022/04/28 03:31:22;;;;;;;9.65;4.10;;;7.90;99.90;;;;;;5131994;27;20038;-71
2022/04/28 03:33:47;;;;;;;12.23;4.25;;;7.80;99.90;;;;;;5140820;27;20026;-70
2022/04/28 03:38:57;;;;;;;11.25;3.72;;;7.80;99.90;;;;;;5119771;27;20118;-70
2022/04/28 03:41:24;;;;;;;9.48;3.88;;;7.80;99.90;;;;;;5142912;27;20046;-69
2022/04/28 03:43:49;;;;;;;7.65;3.22;;;7.80;99.90;;;;;;5110305;27;20031;-70
2022/04/28 03:46:15;;;;;;;12.27;4.18;;;7.70;99.90;;;;;;5109930;27;20259;-71
2022/04/28 03:48:42;;;;;;;9.40;4.57;;;8.30;99.90;;;;;;5119321;27;20030;-69
2022/04/28 03:51:08;;;;;;;7.38;3.83;;;7.80;99.90;;;;;;5131354;27;20276;-71
2022/04/28 03:53:34;;;;;;;6.63;3.90;;;7.80;99.90;;;;;;5124423;27;20507;-71
2022/04/28 03:55:59;;;;;;;7.82;4.25;;;7.90;99.90;;;;;;5136799;27;20039;-71
2022/04/28 03:58:25;;;;;;;10.35;3.92;;;7.80;99.90;;;;;;5122447;27;20027;-70
2022/04/28 04:00:52;;;;;;;11.02;4.05;;;7.80;99.90;;;;;;5123920;27;20034;-71
2022/04/28 04:03:19;;;;;;;7.22;3.88;;;7.70;99.90;;;;;;5102893;27;20256;-70
2022/04/28 04:05:45;;;;;;;9.13;4.25;;;7.70;99.90;;;;;;5134641;27;20213;-72
2022/04/28 04:08:11;;;;;;;10.25;4.32;;;7.70;99.90;;;;;;5141551;27;20035;-70
2022/04/28 04:10:37;;;;;;;8.77;4.22;;;7.70;99.90;;;;;;5107698;27;20215;-71
2022/04/28 04:13:03;;;;;;;8.48;4.63;;;7.70;99.90;;;;;;5115678;27;20051;-70
2022/04/28 04:15:29;;;;;;;6.90;3.78;;;7.70;99.90;;;;;;5127443;27;20039;-70
2022/04/28 04:17:55;;;;;;;9.63;4.15;;;7.70;99.90;;;;;;5126924;27;20085;-72
2022/04/28 04:20:20;;;;;;;10.10;3.83;;;7.70;99.90;;;;;;5124497;27;20094;-71
2022/04/28 04:22:46;;;;;;;10.27;4.28;;;7.70;99.90;;;;;;5117287;27;20059;-72
2022/04/28 04:25:12;;;;;;;9.75;4.57;;;7.70;99.90;;;;;;5111493;27;20031;-70
2022/04/28 04:27:38;;;;;;;9.27;4.72;;;7.70;99.90;;;;;;5096753;27;20075;-71
2022/04/28 04:32:17;;;;;;;9.57;5.00;;;7.70;99.90;;;;;;5112970;27;20081;-72
2022/04/28 04:32:50;;;;;;;11.30;4.65;;;7.70;99.90;;;;;;5127425;27;20042;-70
2022/04/28 04:35:17;;;;;;;8.48;4.78;;;7.60;99.90;;;;;;5123192;27;20039;-71
2022/04/28 04:37:43;;;;;;;7.70;5.00;;;7.60;99.90;;;;;;5134369;27;20050;-70
2022/04/28 04:40:11;;;;;;;9.10;4.45;;;7.50;99.90;;;;;;5121065;27;20038;-70
2022/04/28 04:42:37;;;;;;;9.93;5.20;;;7.40;99.90;;;;;;5143286;27;20144;-69
2022/04/28 04:45:03;;;;;;;10.93;5.05;;;7.30;99.90;;;;;;5115919;27;20231;-70
2022/04/28 04:47:29;;;;;;;7.05;5.18;;;7.20;99.90;;;;;;5116742;27;20051;-70
2022/04/28 04:49:54;;;;;;;9.10;5.43;;;7.20;99.90;;;;;;5098886;27;20058;-69
2022/04/28 04:52:20;;;;;;;9.45;5.45;;;7.10;99.90;;;;;;5131411;27;20046;-70
2022/04/28 04:54:46;;;;;;;10.57;5.35;;;7.00;99.90;;;;;;5096232;27;20231;-70
2022/04/28 04:57:11;;;;;;;11.90;5.60;;;7.00;99.90;;;;;;5121812;27;20213;-70
2022/04/28 04:59:37;;;;;;;11.25;5.35;;;6.90;99.90;;;;;;5130202;27;20019;-72
2022/04/28 05:02:03;;;;;;;9.98;4.93;;;6.90;99.90;;;;;;5110904;27;20031;-71
2022/04/28 05:04:29;;;;;;;12.57;5.40;;;6.80;99.90;;;;;;5125450;27;20038;-73
2022/04/28 05:06:55;;;;;;;9.95;5.10;;;6.80;99.90;;;;;;5116954;27;20336;-71
2022/04/28 05:09:21;;;;;;;8.77;4.78;;;6.80;99.90;;;;;;5103083;27;20031;-71
2022/04/28 05:11:47;;;;;;;9.13;5.40;;;7.40;99.90;;;;;;5129503;27;20078;-71
2022/04/28 05:14:12;;;;;;;7.32;4.78;;;7.10;99.90;;;;;;5145535;27;20057;-70
2022/04/28 05:16:38;;;;;;;10.90;4.80;;;7.10;99.90;;;;;;5108167;27;20038;-70
2022/04/28 05:19:04;;;;;;;7.63;4.30;;;7.30;99.90;;;;;;5118586;27;20106;-70
2022/04/28 05:21:32;;;;;;;9.77;4.85;;;8.10;99.90;;;;;;5137462;27;20071;-70
2022/04/28 05:23:57;;;;;;;7.85;5.38;;;7.30;99.90;;;;;;5114925;27;20039;-70
2022/04/28 05:26:23;;;;;;;11.40;4.30;;;7.40;99.90;;;;;;5127159;27;20035;-70
2022/04/28 05:28:49;;;;;;;8.98;4.45;;;7.50;99.90;;;;;;5136600;27;20031;-70
2022/04/28 05:31:15;;;;;;;13.10;4.15;;;7.60;99.90;;;;;;5109087;27;20031;-70
2022/04/28 05:33:42;;;;;;;7.75;3.80;;;7.80;99.90;;;;;;5123474;27;20039;-69
2022/04/28 05:36:12;;;;;;;8.75;3.55;;;7.90;99.90;;;;;;5129272;27;20038;-70
2022/04/28 05:38:39;;;;;;;9.13;3.60;;;7.90;99.90;;;;;;5130379;27;20102;-69
2022/04/28 05:41:06;;;;;;;8.55;3.75;;;7.90;99.90;;;;;;5140586;27;20019;-70
2022/04/28 05:46:18;;;;;;;7.75;3.08;;;8.00;99.90;;;;;;5134129;27;20039;-70
2022/04/28 05:48:44;;;;;;;7.82;3.40;;;8.10;99.90;;;;;;5139990;27;20097;-70
2022/04/28 05:51:13;;;;;;;8.75;3.22;;;8.20;99.90;;;;;;5129863;27;20090;-72
2022/04/28 05:53:40;;;;;;;7.72;2.63;;;8.30;99.90;;;;;;5126527;27;20062;-73
2022/04/28 05:56:06;;;;;;;5.90;2.80;;;8.60;99.90;;;;;;5136702;27;20065;-73
2022/04/28 05:58:32;;;;;;;11.20;3.10;;;8.80;99.90;;;;;;5100132;27;20054;-70
2022/04/28 06:00:59;;;;;;;9.98;3.65;;;8.90;99.90;;;;;;5102442;27;20023;-73
2022/04/28 06:03:25;;;;;;;9.95;3.30;;;9.00;99.90;;;;;;5126531;27;20041;-72
2022/04/28 06:05:59;;;;;;;10.68;3.30;;;9.10;99.90;;;;;;5117509;27;20250;-72
2022/04/28 06:08:28;;;;;;;10.90;2.70;;;9.20;99.90;;;;;;5110025;27;20050;-69
2022/04/28 06:10:57;;;;;;;6.55;2.70;;;9.40;99.90;;;;;;5126816;27;20349;-70
2022/04/28 06:13:22;;;;;;;8.93;2.60;;;9.60;99.90;;;;;;5122454;27;20281;-72
2022/04/28 06:15:48;;;;;;;8.75;2.85;;;9.70;99.90;;;;;;5143163;27;20058;-71
2022/04/28 06:18:14;;;;;;;7.35;2.72;;;9.70;99.90;;;;;;5139256;27;20386;-69
2022/04/28 06:20:41;;;;;;;5.18;2.15;;;9.90;99.90;;;;;;5126489;27;20191;-69
2022/04/28 06:23:06;;;;;;;6.53;2.63;;;9.80;99.90;;;;;;5112694;27;20031;-70
2022/04/28 06:25:32;;;;;;;9.77;2.78;;;9.70;99.90;;;;;;5126146;27;20099;-70
2022/04/28 06:27:58;;;;;;;12.38;3.05;;;9.70;99.90;;;;;;5117626;28;20035;-72
2022/04/28 06:30:24;;;;;;;6.28;2.30;;;9.80;99.90;;;;;;5105986;28;20038;-72
2022/04/28 06:32:49;;;;;;;6.53;2.40;;;9.80;99.90;;;;;;5118324;27;20372;-72
2022/04/28 06:35:15;;;;;;;7.07;2.40;;;9.90;99.90;;;;;;5102937;28;20182;-71
2022/04/28 06:37:41;;;;;;;9.07;2.13;;;10.00;99.90;;;;;;5122863;27;20039;-70
2022/04/28 06:40:10;;;;;;;5.53;2.10;;;10.00;99.90;;;;;;5094798;27;20027;-71
2022/04/28 06:42:36;;;;;;;8.35;2.15;;;10.10;99.90;;;;;;5118394;27;20086;-71
2022/04/28 06:45:02;;;;;;;7.35;2.25;;;10.20;99.90;;;;;;5096246;28;20028;-69
2022/04/28 06:47:27;;;;;;;10.43;2.00;;;10.10;99.90;;;;;;5088518;28;20054;-69
2022/04/28 06:49:53;;;;;;;5.80;1.95;;;10.20;99.90;;;;;;5106742;28;20035;-69
2022/04/28 06:52:19;;;;;;;8.13;2.25;;;10.20;99.90;;;;;;5105995;27;20058;-70
2022/04/28 06:54:44;;;;;;;7.10;2.10;;;10.50;99.90;;;;;;5124519;27;20064;-71
2022/04/28 06:57:10;;;;;;;6.40;1.83;;;10.50;99.90;;;;;;5109005;27;20340;-70
2022/04/28 06:59:36;;;;;;;5.75;1.60;;;10.60;99.90;;;;;;5108948;27;20175;-69
2022/04/28 07:02:02;;;;;;;4.18;1.77;;;10.80;99.90;;;;;;5124739;27;20035;-68
2022/04/28 07:04:28;;;;;;;4.53;1.60;;;10.90;99.90;;;;;;5128987;27;20027;-69
2022/04/28 07:06:53;;;;;;;5.53;1.55;;;10.90;99.90;;;;;;5125222;27;20364;-70
2022/04/28 07:09:19;;;;;;;5.10;1.95;;;10.60;99.90;;;;;;5125808;27;20329;-72
2022/04/28 07:11:45;;;;;;;6.57;1.60;;;10.40;99.90;;;;;;5088012;28;20334;-69
2022/04/28 07:14:11;;;;;;;6.75;1.98;;;10.60;99.90;;;;;;5082456;28;20101;-69
2022/04/28 07:16:37;;;;;;;6.30;1.88;;;10.90;99.90;;;;;;5085098;28;20020;-70
2022/04/28 07:19:04;;;;;;;9.35;1.92;;;11.10;99.90;;;;;;5084866;28;20036;-69
2022/04/28 07:21:30;;;;;;;7.32;1.70;;;10.90;99.90;;;;;;5094853;28;20184;-70
2022/04/28 07:23:56;;;;;;;6.68;2.10;;;10.70;99.90;;;;;;5106497;28;20094;-69
2022/04/28 07:26:21;;;;;;;6.85;2.05;;;10.90;99.90;;;;;;5102565;28;20023;-70
2022/04/28 07:28:47;;;;;;;6.80;1.95;;;10.80;99.90;;;;;;5120543;28;20334;-68
2022/04/28 07:31:13;;;;;;;6.82;2.35;;;10.70;99.90;;;;;;5098637;28;20126;-69
2022/04/28 07:33:39;;;;;;;4.85;2.28;;;10.60;99.90;;;;;;5092277;28;20089;-70
2022/04/28 07:36:05;;;;;;;6.20;1.98;;;10.60;99.90;;;;;;5106724;27;20023;-69
2022/04/28 07:38:30;;;;;;;7.45;2.40;;;10.30;99.90;;;;;;5118239;27;20034;-70
2022/04/28 07:40:56;;;;;;;9.20;2.20;;;10.30;99.90;;;;;;5102362;28;20261;-69
2022/04/28 07:43:22;;;;;;;6.50;1.92;;;10.40;99.90;;;;;;5083172;28;20082;-71
2022/04/28 07:45:49;;;;;;;7.30;2.08;;;10.10;99.90;;;;;;5106999;28;20024;-71
2022/04/28 07:48:17;;;;;;;4.82;1.98;;;10.20;99.90;;;;;;5118197;27;20050;-72
2022/04/28 07:50:43;;;;;;;6.35;1.70;;;10.20;99.90;;;;;;5096261;28;20074;-72
2022/04/28 07:53:09;;;;;;;4.40;1.90;;;10.20;99.90;;;;;;5099605;28;20036;-71
2022/04/28 07:55:35;;;;;;;6.80;1.52;;;10.10;99.90;;;;;;5067469;28;20031;-73
2022/04/28 07:58:00;;;;;;;5.38;1.60;;;10.10;99.90;;;;;;5097199;28;20077;-70
2022/04/28 08:00:26;;;;;;;7.78;2.55;;;10.10;99.90;;;;;;5082790;28;20231;-71
2022/04/28 08:02:52;;;;;;;8.98;1.50;;;10.20;99.90;;;;;;5103404;28;20042;-72
2022/04/28 08:05:17;;;;;;;4.68;1.50;;;10.30;99.90;;;;;;5103124;28;20028;-72
2022/04/28 08:07:44;;;;;;;4.55;1.80;;;10.40;99.90;;;;;;5112810;27;20322;-71
2022/04/28 08:10:10;;;;;;;4.75;1.92;;;10.40;99.90;;;;;;5120115;27;20188;-70
2022/04/28 08:12:36;;;;;;;7.28;2.17;;;10.20;99.90;;;;;;5121971;28;20046;-70
2022/04/28 08:15:02;;;;;;;3.85;1.67;;;10.30;99.90;;;;;;5114535;27;20271;-71
2022/04/28 08:17:28;;;;;;;6.18;1.85;;;10.30;99.90;;;;;;5107035;27;20103;-72
2022/04/28 08:19:53;;;;;;;6.25;1.90;;;10.30;99.90;;;;;;5120316;27;20382;-70
2022/04/28 08:22:19;;;;;;;4.88;1.73;;;10.50;99.90;;;;;;5110164;28;20480;-68
2022/04/28 08:24:45;;;;;;;9.93;2.58;;;11.20;99.90;;;;;;5109815;27;20038;-69
2022/04/28 08:27:10;;;;;;;5.20;2.28;;;11.20;99.90;;;;;;5097038;27;20038;-69
2022/04/28 08:29:36;;;;;;;7.82;2.03;;;11.60;99.90;;;;;;5102546;27;20062;-68
2022/04/28 08:32:17;;;;;;;5.53;2.13;;;11.20;99.90;;;;;;5105612;27;20117;-68
2022/04/28 08:34:42;;;;;;;6.10;2.85;;;11.00;99.90;;;;;;5118505;27;20370;-69
2022/04/28 08:37:08;;;;;;;9.73;2.67;;;10.80;99.90;;;;;;5113075;27;20351;-70
2022/04/28 08:39:34;;;;;;;7.78;2.85;;;10.80;99.90;;;;;;5118099;27;20035;-68
2022/04/28 08:42:00;;;;;;;9.27;3.05;;;10.90;99.90;;;;;;5131603;27;20094;-71
2022/04/28 08:44:27;;;;;;;8.32;2.88;;;11.00;99.90;;;;;;5084519;28;20068;-71
2022/04/28 08:46:54;;;;;;;11.63;3.50;;;11.00;99.90;;;;;;5115450;28;20066;-70
2022/04/28 08:49:24;;;;;;;8.82;3.28;;;11.10;99.90;;;;;;5105706;27;20045;-70
2022/04/28 08:51:54;;;;;;;8.20;3.40;;;11.30;99.90;;;;;;5130995;27;20128;-70
2022/04/28 08:54:22;;;;;;;8.60;3.42;;;11.70;99.90;;;;;;5141577;27;20284;-69
2022/04/28 08:56:49;;;;;;;8.73;3.35;;;12.00;99.90;;;;;;5133879;27;20236;-71
2022/04/28 08:59:15;;;;;;;11.98;3.05;;;11.60;99.90;;;;;;5118482;27;20043;-70
2022/04/28 09:01:41;;;;;;;7.53;3.33;;;11.30;99.90;;;;;;5134971;27;20030;-70
2022/04/28 09:04:10;;;;;;;6.97;2.83;;;11.30;99.90;;;;;;5120498;28;20351;-72
2022/04/28 09:06:37;;;;;;;8.13;3.08;;;11.10;99.90;;;;;;5103789;27;20117;-70
2022/04/28 09:09:06;;;;;;;9.00;2.80;;;11.10;99.90;;;;;;5142254;27;20041;-69
2022/04/28 09:11:39;;;;;;;12.57;2.90;;;11.20;99.90;;;;;;5132822;27;20108;-70
2022/04/28 09:14:12;;;;;;;8.82;3.10;;;11.40;99.90;;;;;;5117498;28;20140;-70
2022/04/28 09:16:58;;;;;;;8.82;2.80;;;11.30;99.90;;;;;;5120570;27;20379;-70
2022/04/28 09:19:30;;;;;;;8.70;2.63;;;11.20;99.90;;;;;;5100772;28;20385;-70
2022/04/28 09:22:02;;;;;;;9.25;2.78;;;11.30;99.90;;;;;;5132762;27;20039;-71
2022/04/28 09:24:28;;;;;;;7.45;2.30;;;11.20;99.90;;;;;;5102513;28;20031;-70
2022/04/28 09:26:57;;;;;;;8.07;2.33;;;11.20;99.90;;;;;;5121926;27;20123;-70
2022/04/28 09:29:36;;;;;;;8.55;2.42;;;11.40;99.90;;;;;;5118514;27;20036;-70
2022/04/28 09:32:08;;;;;;;6.45;2.22;;;11.30;99.90;;;;;;5117480;28;20039;-71
2022/04/28 09:34:43;;;;;;;7.78;2.30;;;11.40;99.90;;;;;;5102222;28;20039;-71
2022/04/28 09:37:16;;;;;;;10.23;2.60;;;11.80;99.90;;;;;;5120693;27;20051;-72
2022/04/28 09:42:32;;;;;;;5.03;1.87;;;11.90;99.90;;;;;;5109913;27;20047;-71
2022/04/28 09:45:06;;;;;;;7.95;2.22;;;11.80;99.90;;;;;;5123656;27;20039;-70
2022/04/28 09:47:35;;;;;;;11.70;3.10;;;11.50;99.90;;;;;;5120984;27;20043;-72
2022/04/28 09:50:11;;;;;;;7.07;2.40;;;11.70;99.90;;;;;;5120444;27;20237;-71
2022/04/28 09:52:36;;;;;;;7.25;2.67;;;11.70;99.90;;;;;;5112916;27;20045;-70
2022/04/28 09:55:03;;;;;;;5.63;2.25;;;11.70;99.90;;;;;;5109441;27;20067;-71
2022/04/28 09:57:30;;;;;;;9.73;2.60;;;11.60;99.90;;;;;;5133576;27;20054;-72
2022/04/28 09:59:57;;;;;;;13.52;3.33;;;11.90;99.90;;;;;;5126563;27;20052;-71
2022/04/28 10:02:28;;;;;;;11.95;2.03;;;12.10;99.90;;;;;;5102940;27;20031;-70
2022/04/28 10:04:55;;;;;;;9.05;2.13;;;11.90;99.90;;;;;;5124470;27;20076;-70
2022/04/28 10:07:22;;;;;;;15.80;2.47;;;11.70;99.90;;;;;;5116614;27;20039;-69
2022/04/28 10:09:59;;;;;;;7.88;2.10;;;11.80;99.90;;;;;;5114733;27;20309;-72
2022/04/28 10:12:35;;;;;;;7.78;1.83;;;11.90;99.90;;;;;;5099017;28;20088;-71
2022/04/28 10:15:04;;;;;;;17.00;3.33;;;11.90;99.90;;;;;;5111643;27;20039;-71
2022/04/28 10:17:45;;;;;;;12.25;2.67;;;11.80;99.90;;;;;;5118378;27;20245;-71
2022/04/28 10:20:22;;;;;;;12.02;2.10;;;11.80;99.90;;;;;;5127952;27;20035;-70
2022/04/28 10:22:50;;;;;;;6.43;2.17;;;11.60;99.90;;;;;;5123328;27;20019;-70
2022/04/28 10:33:48;;;;;;;14.38;2.28;;;11.80;99.90;;;;;;5119327;27;20143;-68
2022/04/28 10:36:21;;;;;;;10.55;2.75;;;12.00;99.90;;;;;;5116290;27;20500;-69
2022/04/28 10:39:08;;;;;;;13.77;2.58;;;12.10;99.90;;;;;;5121000;27;20257;-70
2022/04/28 10:41:34;;;;;;;5.65;2.20;;;12.30;99.90;;;;;;5122410;27;20038;-69
2022/04/28 10:44:00;;;;;;;6.07;2.50;;;12.00;99.90;;;;;;5130451;27;20031;-69
2022/04/28 10:46:30;;;;;;;9.98;2.70;;;12.10;99.90;;;;;;5124479;27;20035;-69
2022/04/28 10:49:02;;;;;;;3.83;2.15;;;11.90;99.90;;;;;;5106729;27;20408;-69
2022/04/28 10:51:32;;;;;;;8.75;2.60;;;11.90;99.90;;;;;;5108646;28;20285;-70
2022/04/28 10:54:07;;;;;;;6.78;2.17;;;12.40;99.90;;;;;;5119947;27;20039;-70
2022/04/28 10:56:42;;;;;;;8.57;2.20;;;12.80;99.90;;;;;;5121738;27;20043;-72
2022/04/28 10:59:35;;;;;;;5.85;2.42;;;12.40;99.90;;;;;;5124460;27;20047;-69
2022/04/28 11:02:15;;;;;;;4.93;2.30;;;12.40;99.90;;;;;;5121856;27;20356;-69
2022/04/28 11:04:43;;;;;;;11.05;2.58;;;12.30;99.90;;;;;;5119563;27;20035;-70
2022/04/28 11:07:16;;;;;;;18.60;2.42;;;12.50;99.90;;;;;;5121704;27;20353;-71
2022/04/28 11:09:44;;;;;;;16.15;2.95;;;12.80;99.90;;;;;;5120445;27;20039;-71
2022/04/28 11:12:11;;;;;;;8.93;2.17;;;12.50;99.90;;;;;;5124002;27;20092;-70
2022/04/28 11:14:46;;;;;;;6.15;2.03;;;12.30;99.90;;;;;;5128089;27;20051;-68
2022/04/28 11:17:12;;;;;;;;;;;12.20;99.90;;;;;;5120385;27;20093;-69
2022/04/28 11:19:40;;;;;;;22.20;2.78;;;12.30;99.90;;;;;;5120744;27;20176;-70
2022/04/28 11:22:06;;;;;;;8.30;2.30;;;12.40;99.90;;;;;;5117575;27;20032;-70
2022/04/28 11:24:33;;;;;;;7.45;1.83;;;12.50;99.90;;;;;;5107172;27;20069;-69
2022/04/28 11:26:59;;;;;;;8.25;2.13;;;12.30;99.90;;;;;;5123801;27;20073;-69
2022/04/28 11:29:26;;;;;;;6.00;2.20;;;12.20;99.90;;;;;;5122763;27;20043;-70
2022/04/28 11:31:53;;;;;;;11.60;2.40;;;12.20;99.90;;;;;;5130062;27;20032;-68
2022/04/28 11:34:20;;;;;;;5.65;1.92;;;12.40;99.90;;;;;;5113107;27;20361;-70
2022/04/28 11:36:46;;;;;;;6.68;1.85;;;12.70;99.90;;;;;;5119174;27;20035;-68
2022/04/28 11:39:12;;;;;;;6.80;2.47;;;12.30;99.90;;;;;;5116929;27;20040;-71
2022/04/28 11:41:42;;;;;;;7.32;2.33;;;12.00;99.90;;;;;;5115217;28;20296;-69
2022/04/28 11:44:13;;;;;;;5.22;1.98;;;12.00;99.90;;;;;;5120478;27;20218;-69
2022/04/28 11:46:49;;;;;;;9.30;2.20;;;12.00;99.90;;;;;;5093559;28;20069;-69
2022/04/28 11:49:17;;;;;;;7.30;2.22;;;12.10;99.90;;;;;;5109540;27;20031;-69
2022/04/28 11:51:43;;;;;;;6.18;2.70;;;11.80;99.90;;;;;;5113877;27;20088;-70
2022/04/28 11:54:19;;;;;;;11.07;2.88;;;11.70;99.90;;;;;;5144654;27;20035;-70
2022/04/28 11:56:45;;;;;;;7.80;2.10;;;11.60;99.90;;;;;;5117360;27;20046;-70
2022/04/28 11:59:11;;;;;;;5.95;2.65;;;11.50;99.90;;;;;;5119461;27;20063;-70
2022/04/28 12:01:39;;;;;;;10.57;2.35;;;11.60;99.90;;;;;;5133304;27;20054;-68
2022/04/28 12:04:05;;;;;;;7.90;3.28;;;11.70;99.90;;;;;;5134514;27;20024;-69
2022/04/28 12:06:31;;;;;;;5.82;2.45;;;11.80;99.90;;;;;;5118541;27;20044;-70
2022/04/28 12:14:31;;;;;;;5.30;2.30;;;11.60;99.90;;;;;;5120393;28;20055;-70
2022/04/28 12:20:01;;;;;;;8.15;2.40;;;11.80;99.90;;;;;;5116242;28;20394;-70
2022/04/28 12:22:45;;;;;;;7.38;2.17;;;11.90;99.90;;;;;;5127410;27;20281;-67
2022/04/28 12:25:16;;;;;;;3.17;1.80;;;11.80;99.90;;;;;;5111232;28;20046;-70
2022/04/28 12:27:46;;;;;;;3.78;1.85;;;12.30;99.90;;;;;;5103378;28;20054;-68
2022/04/28 12:30:21;;;;;;;8.95;2.60;;;12.30;99.90;;;;;;5102213;28;20035;-69
2022/04/28 12:32:52;;;;;;;5.28;1.80;;;12.20;99.90;;;;;;5136928;28;20043;-67
2022/04/28 12:35:30;;;;;;;6.07;1.95;;;12.10;99.90;;;;;;5124553;28;20071;-69
2022/04/28 12:38:07;;;;;;;7.57;2.40;;;12.00;99.90;;;;;;5123464;28;20092;-67
2022/04/28 12:40:50;;;;;;;9.60;1.98;;;12.30;99.90;;;;;;5092723;28;20035;-70
2022/04/28 12:43:38;;;;;;;7.38;1.90;;;12.00;99.90;;;;;;5115755;28;20036;-68
2022/04/28 12:46:06;;;;;;;5.40;2.00;;;12.20;99.90;;;;;;5106127;28;20357;-69
2022/04/28 12:48:39;;;;;;;8.85;2.58;;;11.80;99.90;;;;;;5121922;28;20047;-68
2022/04/28 12:51:08;;;;;;;6.65;1.60;;;11.90;99.90;;;;;;5099778;28;20042;-70
2022/04/28 12:53:35;;;;;;;6.68;2.42;;;12.00;99.90;;;;;;5118016;28;20035;-68
2022/04/28 12:56:15;;;;;;;6.53;2.35;;;11.90;99.90;;;;;;5116989;28;20072;-70
2022/04/28 12:58:42;;;;;;;7.68;2.50;;;11.80;99.90;;;;;;5119716;27;20046;-70
2022/04/28 13:01:11;;;;;;;3.15;2.13;;;12.40;99.90;;;;;;5126357;27;20035;-70
2022/04/28 13:03:37;;;;;;;9.85;2.67;;;12.60;99.90;;;;;;5121702;27;20065;-69
2022/04/28 13:06:04;;;;;;;4.10;2.05;;;12.50;99.90;;;;;;5115534;27;20323;-69
2022/04/28 13:08:31;;;;;;;6.78;1.77;;;12.30;99.90;;;;;;5107293;28;20317;-71
2022/04/28 13:10:57;;;;;;;9.73;2.55;;;12.20;99.90;;;;;;5099233;28;20140;-68
2022/04/28 13:13:23;;;;;;;4.88;2.33;;;12.60;99.90;;;;;;5104866;28;20047;-69
2022/04/28 13:15:48;;;;;;;6.45;1.90;;;13.00;99.90;;;;;;5120596;28;20086;-69
2022/04/28 13:18:14;;;;;;;6.10;1.77;;;13.20;99.90;;;;;;5125376;27;20129;-68
2022/04/28 13:20:40;;;;;;;7.10;2.13;;;13.80;99.90;;;;;;5103851;28;20039;-69
2022/04/28 13:23:05;;;;;;;5.85;2.13;;;13.70;99.90;;;;;;5115422;27;20341;-68
2022/04/28 13:25:31;;;;;;;4.88;1.98;;;13.90;99.90;;;;;;5103924;28;20386;-71
2022/04/28 13:27:57;;;;;;;5.32;1.70;;;13.80;99.90;;;;;;5103118;28;20039;-71
2022/04/28 13:30:23;;;;;;;6.05;2.40;;;13.20;99.90;;;;;;5103399;28;20258;-71